Terminal Aerodrome Forecast
Issued by NWS Tallahassee, FL

Home | Current Version | Previous Version | Text Only | Print | Product List | Glossary On
Versions: 1 2 3 4 5 6 7 8 9 10 11 12 13 14 15 16
000
FTUS42 KTAE 011800 AAA
TAFTLH
TAF AMD
KTLH 011844Z 0119/0218 06008KT P6SM OVC009
      TEMPO 0119/0123 SCT009 OVC012
     FM020600 06003KT 1/2SM FG OVC004
     FM021600 09003KT 5SM BR OVC007=

USA.gov is the U.S. government's official web portal to all federal, state and local government web resources and services.